createdAt,value
2022-08-12T00:00:48.593Z,3.10
2022-08-12T00:03:34.368Z,2.60
2022-08-12T00:06:19.864Z,3.17
2022-08-12T00:09:05.078Z,3.00
2022-08-12T00:11:50.670Z,3.20
2022-08-12T00:14:37.313Z,3.38
2022-08-12T00:17:23.368Z,3.00
2022-08-12T00:20:08.923Z,2.90
2022-08-12T00:22:59.745Z,3.10
2022-08-12T00:26:20.609Z,3.30
2022-08-12T00:29:00.504Z,3.05
2022-08-12T00:31:47.466Z,3.20
2022-08-12T00:34:32.895Z,2.72
2022-08-12T00:37:18.332Z,3.03
2022-08-12T00:40:04.632Z,3.45
2022-08-12T00:42:39.078Z,3.17
2022-08-12T00:45:08.261Z,3.35
2022-08-12T00:47:37.686Z,3.20
2022-08-12T00:50:06.627Z,3.80
2022-08-12T00:52:34.780Z,3.28
2022-08-12T00:55:03.130Z,3.30
2022-08-12T00:57:31.790Z,3.30
2022-08-12T01:00:03.373Z,3.22
2022-08-12T01:02:32.558Z,3.80
2022-08-12T01:05:20.303Z,3.20
2022-08-12T01:08:05.909Z,3.40
2022-08-12T01:10:52.925Z,3.50
2022-08-12T01:13:21.484Z,3.30
2022-08-12T01:15:50.511Z,3.40
2022-08-12T01:18:18.756Z,3.40
2022-08-12T01:21:00.950Z,3.72
2022-08-12T01:23:50.291Z,3.55
2022-08-12T01:26:20.993Z,4.03
2022-08-12T01:28:51.100Z,3.85
2022-08-12T01:31:19.823Z,3.63
2022-08-12T01:33:57.327Z,3.40
2022-08-12T01:36:25.867Z,3.88
2022-08-12T01:38:56.366Z,3.50
2022-08-12T01:41:27.383Z,3.63
2022-08-12T01:43:55.424Z,3.55
2022-08-12T01:46:31.067Z,3.80
2022-08-12T01:49:04.798Z,3.67
2022-08-12T01:52:20.663Z,3.47
2022-08-12T01:54:29.104Z,3.50
2022-08-12T01:57:00.406Z,3.67
2022-08-12T01:59:50.252Z,4.05
2022-08-12T02:02:18.986Z,3.63
2022-08-12T02:05:23.098Z,3.90
2022-08-12T02:08:18.894Z,3.88
2022-08-12T02:11:07.767Z,3.78
2022-08-12T02:13:50.701Z,3.47
2022-08-12T02:16:30.469Z,3.58
2022-08-12T02:19:13.692Z,4.18
2022-08-12T02:21:53.682Z,3.50
2022-08-12T02:24:22.582Z,3.63
2022-08-12T02:26:52.563Z,3.80
2022-08-12T02:29:22.092Z,3.92
2022-08-12T02:31:50.073Z,3.55
2022-08-12T02:34:19.063Z,3.75
2022-08-12T02:36:47.357Z,3.63
2022-08-12T02:39:16.011Z,3.70
2022-08-12T02:41:45.344Z,3.78
2022-08-12T02:44:15.204Z,4.00
2022-08-12T02:46:49.167Z,3.80
2022-08-12T02:49:20.325Z,3.75
2022-08-12T02:51:48.367Z,3.85
2022-08-12T02:54:16.396Z,3.38
2022-08-12T02:56:47.226Z,3.67
2022-08-12T02:59:20.262Z,3.75
2022-08-12T03:01:50.856Z,4.20
2022-08-12T03:04:23.991Z,3.67
2022-08-12T03:06:56.784Z,3.60
2022-08-12T03:09:24.745Z,3.60
2022-08-12T03:11:59.468Z,3.80
2022-08-12T03:14:29.711Z,3.60
2022-08-12T03:17:09.530Z,3.90
2022-08-12T03:19:38.284Z,4.35
2022-08-12T03:22:26.241Z,4.07
2022-08-12T03:24:54.250Z,4.47
2022-08-12T03:27:22.262Z,4.53
2022-08-12T03:29:51.534Z,4.15
2022-08-12T03:32:35.723Z,4.27
2022-08-12T03:35:07.589Z,3.72
2022-08-12T03:37:35.661Z,4.25
2022-08-12T03:40:03.728Z,4.30
2022-08-12T03:42:34.818Z,4.30
2022-08-12T03:45:32.816Z,4.23
2022-08-12T03:48:24.491Z,3.83
2022-08-12T03:51:10.002Z,3.70
2022-08-12T03:53:56.139Z,4.23
2022-08-12T03:56:41.420Z,3.60
2022-08-12T03:59:27.032Z,3.83
2022-08-12T04:01:57.690Z,3.93
2022-08-12T04:04:28.689Z,4.05
2022-08-12T04:06:58.080Z,4.13
2022-08-12T04:09:26.167Z,4.20
2022-08-12T04:12:11.509Z,3.77
2022-08-12T04:14:40.466Z,3.70
2022-08-12T04:17:08.588Z,3.63
2022-08-12T04:19:37.980Z,3.70
2022-08-12T04:22:06.160Z,4.03
2022-08-12T04:24:35.980Z,3.95
2022-08-12T04:27:05.480Z,10.53
2022-08-12T04:30:29.101Z,4.87
2022-08-12T04:32:22.452Z,3.67
2022-08-12T04:34:52.112Z,3.90
2022-08-12T04:37:20.199Z,3.67
2022-08-12T04:39:48.355Z,3.43
2022-08-12T04:42:16.634Z,3.78
2022-08-12T04:44:45.264Z,3.72
2022-08-12T04:47:14.212Z,3.55
2022-08-12T04:49:42.708Z,3.90
2022-08-12T04:52:12.188Z,3.70
2022-08-12T04:54:40.171Z,3.85
2022-08-12T04:57:09.826Z,3.90
2022-08-12T04:59:43.712Z,3.63
2022-08-12T05:02:20.557Z,3.70
2022-08-12T05:04:50.810Z,3.97
2022-08-12T05:07:20.363Z,3.97
2022-08-12T05:10:00.481Z,3.67
2022-08-12T05:12:33.518Z,3.80
2022-08-12T05:15:01.776Z,4.00
2022-08-12T05:17:29.907Z,3.90
2022-08-12T05:19:58.350Z,3.87
2022-08-12T05:22:28.215Z,4.10
2022-08-12T05:24:56.264Z,4.07
2022-08-12T05:27:24.248Z,4.03
2022-08-12T05:30:06.408Z,3.75
2022-08-12T05:32:37.352Z,4.10
2022-08-12T05:35:08.113Z,4.07
2022-08-12T05:37:37.553Z,4.10
2022-08-12T05:40:10.916Z,4.13
2022-08-12T05:42:39.650Z,4.10
2022-08-12T05:45:08.857Z,3.83
2022-08-12T05:47:53.350Z,3.97
2022-08-12T05:50:22.398Z,3.93
2022-08-12T05:52:53.859Z,3.70
2022-08-12T05:55:25.831Z,4.00
2022-08-12T05:57:56.392Z,4.00
2022-08-12T06:00:25.768Z,4.00
2022-08-12T06:02:57.115Z,4.40
2022-08-12T06:05:25.187Z,4.20
2022-08-12T06:08:01.485Z,4.00
2022-08-12T06:10:33.081Z,3.80
2022-08-12T06:13:02.604Z,4.40
2022-08-12T06:15:31.302Z,4.15
2022-08-12T06:18:13.747Z,3.92
2022-08-12T06:20:44.188Z,4.30
2022-08-12T06:23:15.345Z,4.07
2022-08-12T06:25:43.687Z,4.53
2022-08-12T06:28:17.515Z,4.05
2022-08-12T06:31:02.695Z,4.15
2022-08-12T06:33:53.849Z,4.20
2022-08-12T06:36:23.320Z,4.18
2022-08-12T06:38:53.184Z,4.10
2022-08-12T06:41:38.476Z,3.95
2022-08-12T06:44:08.017Z,4.30
2022-08-12T06:46:36.839Z,4.15
2022-08-12T06:49:06.917Z,4.25
2022-08-12T06:51:35.352Z,4.20
2022-08-12T06:54:04.912Z,4.32
2022-08-12T06:57:02.452Z,4.32
2022-08-12T06:59:21.767Z,4.10
2022-08-12T07:01:51.705Z,4.28
2022-08-12T07:04:37.473Z,4.07
2022-08-12T07:07:07.265Z,4.35
2022-08-12T07:09:58.105Z,4.03
2022-08-12T07:12:28.318Z,3.90
2022-08-12T07:14:57.523Z,4.15
2022-08-12T07:17:25.563Z,4.65
2022-08-12T07:19:55.455Z,4.00
2022-08-12T07:22:26.258Z,4.72
2022-08-12T07:25:09.417Z,6.70
2022-08-12T07:27:40.740Z,4.30
2022-08-12T07:30:10.221Z,4.03
2022-08-12T07:32:38.303Z,3.60
2022-08-12T07:35:07.531Z,4.35
2022-08-12T07:37:37.586Z,4.18
2022-08-12T07:40:11.612Z,4.20
2022-08-12T07:42:40.054Z,4.07
2022-08-12T07:45:09.567Z,4.20
2022-08-12T07:47:37.973Z,3.97
2022-08-12T07:50:09.328Z,3.90
2022-08-12T07:52:38.465Z,4.10
2022-08-12T07:55:09.057Z,4.10
2022-08-12T07:57:37.152Z,4.50
2022-08-12T08:00:06.258Z,4.25
2022-08-12T08:02:36.261Z,4.53
2022-08-12T08:05:04.505Z,4.55
2022-08-12T08:07:32.580Z,4.10
2022-08-12T08:10:01.599Z,3.83
2022-08-12T08:12:48.695Z,3.78
2022-08-12T08:15:17.133Z,4.68
2022-08-12T08:17:59.282Z,4.20
2022-08-12T08:20:29.404Z,4.13
2022-08-12T08:22:58.218Z,3.65
2022-08-12T08:25:36.146Z,3.67
2022-08-12T08:28:08.330Z,3.97
2022-08-12T08:30:38.343Z,3.83
2022-08-12T08:33:24.644Z,3.88
2022-08-12T08:35:57.302Z,3.80
2022-08-12T08:38:32.277Z,3.95
2022-08-12T08:42:17.225Z,3.97
2022-08-12T08:44:11.051Z,5.10
2022-08-12T08:46:39.608Z,4.10
2022-08-12T08:49:07.655Z,3.83
2022-08-12T08:51:36.551Z,4.15
2022-08-12T08:54:04.927Z,3.60
2022-08-12T08:56:33.000Z,3.65
2022-08-12T08:59:01.102Z,3.83
2022-08-12T09:01:37.554Z,3.60
2022-08-12T09:05:09.477Z,3.53
2022-08-12T09:07:16.894Z,3.63
2022-08-12T09:10:02.513Z,3.35
2022-08-12T09:12:54.420Z,3.20
2022-08-12T09:15:36.809Z,3.30
2022-08-12T09:18:08.866Z,3.10
2022-08-12T09:20:38.337Z,3.40
2022-08-12T09:24:00.012Z,4.15
2022-08-12T09:26:03.739Z,2.88
2022-08-12T09:28:33.582Z,3.03
2022-08-12T09:31:01.590Z,2.42
2022-08-12T09:34:25.701Z,3.03
2022-08-12T09:36:31.466Z,3.00
2022-08-12T09:40:06.017Z,3.17
2022-08-12T09:42:39.079Z,3.00
2022-08-12T09:46:05.221Z,3.05
2022-08-12T09:48:19.953Z,3.50
2022-08-12T09:50:55.628Z,3.25
2022-08-12T09:53:36.609Z,2.80
2022-08-12T09:57:00.304Z,3.17
2022-08-12T09:58:59.931Z,3.10
2022-08-12T10:01:35.423Z,3.50
2022-08-12T10:04:19.622Z,3.10
2022-08-12T10:06:54.783Z,2.90
2022-08-12T10:09:28.519Z,3.30
2022-08-12T10:12:33.120Z,3.30
2022-08-12T10:16:02.952Z,3.20
2022-08-12T10:18:07.903Z,3.30
2022-08-12T10:20:36.121Z,3.50
2022-08-12T10:23:05.740Z,3.80
2022-08-12T10:26:35.643Z,3.67
2022-08-12T10:29:02.831Z,3.60
2022-08-12T10:32:19.767Z,3.90
2022-08-12T10:34:24.037Z,3.47
2022-08-12T10:36:58.785Z,3.92
2022-08-12T10:40:06.874Z,3.40
2022-08-12T10:42:47.870Z,3.80
2022-08-12T10:45:17.200Z,3.63
2022-08-12T10:48:19.701Z,3.95
2022-08-12T10:50:58.437Z,3.50
2022-08-12T10:53:45.402Z,3.65
2022-08-12T10:56:16.469Z,3.53
2022-08-12T10:58:45.980Z,3.42
2022-08-12T11:01:50.213Z,3.80
2022-08-12T11:04:32.104Z,3.88
2022-08-12T11:07:05.911Z,3.42
2022-08-12T11:09:59.697Z,3.90
2022-08-12T11:12:55.938Z,3.55
2022-08-12T11:15:33.075Z,3.70
2022-08-12T11:18:12.001Z,3.70
2022-08-12T11:20:48.034Z,3.80
2022-08-12T11:23:25.150Z,3.67
2022-08-12T11:26:06.208Z,4.00
2022-08-12T11:28:37.520Z,3.63
2022-08-12T11:31:10.062Z,3.80
2022-08-12T11:34:06.139Z,3.70
2022-08-12T11:36:29.399Z,3.70
2022-08-12T11:39:04.360Z,3.72
2022-08-12T11:41:34.573Z,3.63
2022-08-12T11:44:37.217Z,3.33
2022-08-12T11:46:53.294Z,3.58
2022-08-12T11:49:31.371Z,3.30
2022-08-12T11:52:02.005Z,2.97
2022-08-12T11:54:30.439Z,3.50
2022-08-12T11:57:00.213Z,3.28
2022-08-12T12:02:20.847Z,3.30
2022-08-12T12:04:52.987Z,3.63
2022-08-12T12:07:33.954Z,3.10
2022-08-12T12:10:11.915Z,3.10
2022-08-12T12:12:41.509Z,3.03
2022-08-12T12:15:25.188Z,2.80
2022-08-12T12:18:05.524Z,2.80
2022-08-12T12:20:35.120Z,2.72
2022-08-12T12:23:04.236Z,2.88
2022-08-12T12:25:59.696Z,3.00
2022-08-12T12:28:37.942Z,3.00
2022-08-12T12:31:14.859Z,3.22
2022-08-12T12:33:58.958Z,2.90
2022-08-12T12:36:30.296Z,3.10
2022-08-12T12:39:00.408Z,2.97
2022-08-12T12:42:45.660Z,3.13
2022-08-12T12:44:25.849Z,3.35
2022-08-12T12:46:59.840Z,3.20
2022-08-12T12:49:28.967Z,3.10
2022-08-12T12:52:19.270Z,3.05
2022-08-12T12:54:52.976Z,3.05
2022-08-12T12:57:21.589Z,3.25
2022-08-12T13:00:18.945Z,2.90
2022-08-12T13:02:55.496Z,3.10
2022-08-12T13:05:27.504Z,3.45
2022-08-12T13:08:01.153Z,3.00
2022-08-12T13:10:30.747Z,3.60
2022-08-12T13:14:06.866Z,3.38
2022-08-12T13:15:53.929Z,3.15
2022-08-12T13:18:36.766Z,3.67
2022-08-12T13:21:06.024Z,2.92
2022-08-12T13:23:48.067Z,3.60
2022-08-12T13:26:17.272Z,3.10
2022-08-12T13:28:53.109Z,3.38
2022-08-12T13:31:22.245Z,3.72
2022-08-12T13:34:32.053Z,2.80
2022-08-12T13:36:43.430Z,3.75
2022-08-12T13:39:12.940Z,3.60
2022-08-12T13:41:44.644Z,3.35
2022-08-12T13:44:13.059Z,3.00
2022-08-12T13:46:42.224Z,3.00
2022-08-12T13:49:17.667Z,3.50
2022-08-12T13:52:01.791Z,3.00
2022-08-12T13:54:31.715Z,3.22
2022-08-12T13:57:00.056Z,3.00
2022-08-12T13:59:28.634Z,3.20
2022-08-12T14:02:17.581Z,2.72
2022-08-12T14:04:56.701Z,3.40
2022-08-12T14:07:26.117Z,3.10
2022-08-12T14:10:11.806Z,3.03
2022-08-12T14:12:54.756Z,3.35
2022-08-12T14:15:36.753Z,4.55
2022-08-12T14:18:13.291Z,3.17
2022-08-12T14:20:43.763Z,3.13
2022-08-12T14:24:01.451Z,3.03
2022-08-12T14:26:05.273Z,3.53
2022-08-12T14:28:35.034Z,3.58
2022-08-12T14:31:07.229Z,3.53
2022-08-12T14:33:48.847Z,3.15
2022-08-12T14:36:21.708Z,3.50
2022-08-12T14:38:49.935Z,2.97
2022-08-12T14:41:19.125Z,3.08
2022-08-12T14:44:04.472Z,3.42
2022-08-12T14:46:34.603Z,3.45
2022-08-12T14:50:01.340Z,3.08
2022-08-12T14:52:38.906Z,3.13
2022-08-12T14:57:35.626Z,3.38
2022-08-12T15:00:33.325Z,3.25
2022-08-12T15:03:03.504Z,2.80
2022-08-12T15:06:03.403Z,3.30
2022-08-12T15:08:28.579Z,3.10
2022-08-12T15:10:57.784Z,3.30
2022-08-12T15:13:26.215Z,3.05
2022-08-12T15:15:56.355Z,3.30
2022-08-12T15:18:24.858Z,3.10
2022-08-12T15:20:54.775Z,2.90
2022-08-12T15:23:23.809Z,3.20
2022-08-12T15:26:02.729Z,3.20
2022-08-12T15:28:32.838Z,3.15
2022-08-12T15:31:00.891Z,3.10
2022-08-12T15:33:45.468Z,3.30
2022-08-12T15:36:14.548Z,2.70
2022-08-12T15:38:47.684Z,2.60
2022-08-12T15:41:22.229Z,2.78
2022-08-12T15:44:37.121Z,2.50
2022-08-12T15:46:39.640Z,2.80
2022-08-12T15:49:16.778Z,2.50
2022-08-12T15:51:58.920Z,2.50
2022-08-12T15:54:34.731Z,2.55
2022-08-12T15:57:10.689Z,2.60
2022-08-12T16:00:04.225Z,2.70
2022-08-12T16:02:29.751Z,2.50
2022-08-12T16:04:58.420Z,3.20
2022-08-12T16:07:29.996Z,3.78
2022-08-12T16:10:05.964Z,3.25
2022-08-12T16:12:42.147Z,3.28
2022-08-12T16:15:13.297Z,3.42
2022-08-12T16:18:18.522Z,3.60
2022-08-12T16:20:33.601Z,3.60
2022-08-12T16:23:04.053Z,3.50
2022-08-12T16:26:03.263Z,3.72
2022-08-12T16:28:22.684Z,3.70
2022-08-12T16:30:56.271Z,4.07
2022-08-12T16:33:24.948Z,3.65
2022-08-12T16:36:04.628Z,3.78
2022-08-12T16:38:32.996Z,4.13
2022-08-12T16:41:01.635Z,3.65
2022-08-12T16:43:33.538Z,3.97
2022-08-12T16:46:05.214Z,3.95
2022-08-12T16:48:50.527Z,5.22
2022-08-12T16:51:19.901Z,5.00
2022-08-12T16:53:49.403Z,3.65
2022-08-12T16:56:18.159Z,4.18
2022-08-12T16:58:48.192Z,3.97
2022-08-12T17:01:16.520Z,4.13
2022-08-12T17:03:52.865Z,3.92
2022-08-12T17:06:27.379Z,4.13
2022-08-12T17:09:08.805Z,3.90
2022-08-12T17:11:49.275Z,3.70
2022-08-12T17:14:23.061Z,4.03
2022-08-12T17:16:52.310Z,4.05
2022-08-12T17:19:20.391Z,4.10
2022-08-12T17:22:08.810Z,4.07
2022-08-12T17:24:37.281Z,4.57
2022-08-12T17:27:16.483Z,3.80
2022-08-12T17:30:01.578Z,4.22
2022-08-12T17:32:33.768Z,4.32
2022-08-12T17:35:36.882Z,4.43
2022-08-12T17:38:06.933Z,4.57
2022-08-12T17:40:37.095Z,4.43
2022-08-12T17:43:52.020Z,4.20
2022-08-12T17:46:00.035Z,4.57
2022-08-12T17:48:34.847Z,4.95
2022-08-12T17:51:16.198Z,4.50
2022-08-12T17:54:11.706Z,4.75
2022-08-12T17:56:36.912Z,4.55
2022-08-12T17:59:07.614Z,4.68
2022-08-12T18:01:37.237Z,4.43
2022-08-12T18:04:20.889Z,7.45
2022-08-12T18:06:50.869Z,4.68
2022-08-12T18:09:19.351Z,4.65
2022-08-12T18:12:07.912Z,4.90
2022-08-12T18:14:38.083Z,4.90
2022-08-12T18:17:10.514Z,5.15
2022-08-12T18:20:05.480Z,4.80
2022-08-12T18:22:30.411Z,5.45
2022-08-12T18:25:13.761Z,4.60
2022-08-12T18:28:16.638Z,4.50
2022-08-12T18:30:52.466Z,5.15
2022-08-12T18:33:26.124Z,5.10
2022-08-12T18:35:56.741Z,4.63
2022-08-12T18:38:25.895Z,5.40
2022-08-12T18:41:22.035Z,5.03
2022-08-12T18:43:58.751Z,5.53
2022-08-12T18:46:32.090Z,5.20
2022-08-12T18:49:17.133Z,5.80
2022-08-12T18:51:55.147Z,5.40
2022-08-12T18:54:31.063Z,5.30
2022-08-12T18:57:01.747Z,5.00
2022-08-12T19:00:01.852Z,5.22
2022-08-12T19:02:22.468Z,5.30
2022-08-12T19:04:53.219Z,5.15
2022-08-12T19:07:22.680Z,5.25
2022-08-12T19:09:58.388Z,5.05
2022-08-12T19:12:57.089Z,5.22
2022-08-12T19:15:26.004Z,5.28
2022-08-12T19:18:00.697Z,4.90
2022-08-12T19:20:35.773Z,5.10
2022-08-12T19:23:08.301Z,5.15
2022-08-12T19:26:01.241Z,5.47
2022-08-12T19:28:35.402Z,4.93
2022-08-12T19:31:44.755Z,5.60
2022-08-12T19:34:47.015Z,4.78
2022-08-12T19:37:20.100Z,5.47
2022-08-12T19:40:08.755Z,5.35
2022-08-12T19:42:41.761Z,5.50
2022-08-12T19:45:14.830Z,6.10
2022-08-12T19:47:44.780Z,5.57
2022-08-12T19:50:13.676Z,6.47
2022-08-12T19:52:51.265Z,5.38
2022-08-12T19:55:22.972Z,5.50
2022-08-12T19:58:02.866Z,5.38
2022-08-12T20:00:34.722Z,5.93
2022-08-12T20:03:04.418Z,5.68
2022-08-12T20:06:06.375Z,5.68
2022-08-12T20:08:32.858Z,5.72
2022-08-12T20:12:10.229Z,5.82
2022-08-12T20:14:01.075Z,5.75
2022-08-12T20:16:54.512Z,5.60
2022-08-12T20:19:52.188Z,5.53
2022-08-12T20:22:14.910Z,5.55
2022-08-12T20:24:55.257Z,5.72
2022-08-12T20:28:03.606Z,6.05
2022-08-12T20:30:20.673Z,5.57
2022-08-12T20:33:06.054Z,5.75
2022-08-12T20:36:06.865Z,5.80
2022-08-12T20:38:34.256Z,5.90
2022-08-12T20:41:18.967Z,5.78
2022-08-12T20:43:51.855Z,5.63
2022-08-12T20:46:20.454Z,6.07
2022-08-12T20:48:54.307Z,6.05
2022-08-12T20:51:23.522Z,6.28
2022-08-12T20:53:57.465Z,5.65
2022-08-12T20:56:34.516Z,6.20
2022-08-12T20:59:04.742Z,5.68
2022-08-12T21:01:36.681Z,6.22
2022-08-12T21:04:34.355Z,6.47
2022-08-12T21:07:08.564Z,6.43
2022-08-12T21:09:41.104Z,5.90
2022-08-12T21:12:27.928Z,6.22
2022-08-12T21:15:17.400Z,6.15
2022-08-12T21:18:08.617Z,6.32
2022-08-12T21:20:37.068Z,6.45
2022-08-12T21:23:06.389Z,6.30
2022-08-12T21:25:35.883Z,5.85
2022-08-12T21:28:14.588Z,6.15
2022-08-12T21:30:55.067Z,6.13
2022-08-12T21:33:31.815Z,6.50
2022-08-12T21:36:02.588Z,6.47
2022-08-12T21:38:34.878Z,6.30
2022-08-12T21:41:09.000Z,6.75
2022-08-12T21:43:45.278Z,6.60
2022-08-12T21:46:34.848Z,6.50
2022-08-12T21:49:05.435Z,6.20
2022-08-12T21:51:49.017Z,6.97
2022-08-12T21:54:21.678Z,6.20
2022-08-12T21:56:50.209Z,6.50
2022-08-12T21:59:20.302Z,6.65
2022-08-12T22:01:49.656Z,6.75
2022-08-12T22:04:35.776Z,7.00
2022-08-12T22:07:06.091Z,6.88
2022-08-12T22:09:43.494Z,6.78
2022-08-12T22:12:40.574Z,7.13
2022-08-12T22:15:21.330Z,7.07
2022-08-12T22:17:55.572Z,6.65
2022-08-12T22:20:29.429Z,7.10
2022-08-12T22:23:00.362Z,6.95
2022-08-12T22:25:30.325Z,6.38
2022-08-12T22:28:17.876Z,6.80
2022-08-12T22:31:15.340Z,6.78
2022-08-12T22:33:54.329Z,7.05
2022-08-12T22:36:29.282Z,6.57
2022-08-12T22:38:59.734Z,6.60
2022-08-12T22:41:45.226Z,6.93
2022-08-12T22:44:30.893Z,6.97
2022-08-12T22:47:54.238Z,7.00
2022-08-12T22:50:06.739Z,6.90
2022-08-12T22:52:35.287Z,7.15
2022-08-12T22:55:05.532Z,7.40
2022-08-12T22:57:53.851Z,7.55
2022-08-12T23:00:24.611Z,7.30
2022-08-12T23:03:00.607Z,7.03
2022-08-12T23:05:56.584Z,7.18
2022-08-12T23:08:21.680Z,7.40
2022-08-12T23:10:50.141Z,7.30
2022-08-12T23:13:43.114Z,7.43
2022-08-12T23:16:28.633Z,7.70
2022-08-12T23:19:09.894Z,7.13
2022-08-12T23:22:06.684Z,7.78
2022-08-12T23:24:38.342Z,7.40
2022-08-12T23:27:23.710Z,7.68
2022-08-12T23:29:59.554Z,7.90
2022-08-12T23:32:40.981Z,7.57
2022-08-12T23:35:10.563Z,7.68
2022-08-12T23:37:53.899Z,8.18
2022-08-12T23:40:24.740Z,8.20
2022-08-12T23:42:54.369Z,7.55
2022-08-12T23:45:32.026Z,7.80
2022-08-12T23:48:02.544Z,8.48
2022-08-12T23:50:34.048Z,8.07
2022-08-12T23:53:05.519Z,7.90
2022-08-12T23:55:38.205Z,8.27
2022-08-12T23:58:21.702Z,8.35
